• Join FlightAware (Why Join?)
  • Login
  • US Flag 
10:33PM EDT


 

Airport Tracker/Info


-or-


 

Live Flight TrackerFlight Track Log ✈ N821WW ✈ 19-Oct-2013 ✈ KRAP - KAPA

Flight Track Log - Related Links

Times and Time Zones

All times are in EDT time to prevent confusion due to time zone crossing. See the N821WW flight status page for this flight to view local times or setup timezone preferences in your user account.

Time Position Orientation Groundspeed Altitude Reporting Facility
EDT Latitude Longitude Course Direction KTS MPH feet Rate Location/Type
06:45PM 43.5978 -103.2458 197° South 142 163 8,500  Level Denver Center
06:46PM 43.5603 -103.2619 197° South 145 167 8,500  Level Denver Center
06:47PM 43.5167 -103.2786 195° South 146 168 8,500  Level Denver Center
06:48PM 43.4808 -103.2950 198° South 143 165 8,500  Level Denver Center
06:49PM 43.4439 -103.3119 198° South 145 167 8,500  Level Denver Center
06:50PM 43.3997 -103.3297 196° South 146 168 8,500  Level Denver Center
06:51PM 43.3617 -103.3447 196° South 147 169 8,500  Level Denver Center
06:52PM 43.3186 -103.3625 197° South 146 168 8,500  Level Denver Center
06:53PM 43.2847 -103.3778 198° South 140 161 8,500  Level Denver Center
06:54PM 43.2453 -103.3953 198° South 136 157 8,500  Level Denver Center
06:55PM 43.2114 -103.4081 195° South 134 154 8,500  Level Denver Center
06:56PM 43.1772 -103.4233 198° South 134 154 8,500  Level Denver Center
06:57PM 43.1389 -103.4406 198° South 132 152 8,500  Level Denver Center
06:58PM 43.1058 -103.4528 195° South 130 150 8,600 240 Climbing Denver Center
06:59PM 43.0692 -103.4678 197° South 127 146 9,100 420 Climbing Denver Center
07:00PM 43.0417 -103.4792 197° South 118 136 9,500 420 Climbing Denver Center
07:01PM 43.0153 -103.4908 198° South 110 127 10,000 480 Climbing Denver Center
07:02PM 42.9844 -103.5044 198° South 106 122 10,500 240 Climbing Denver Center
07:03PM 42.9558 -103.5167 197° South 108 124 10,600  Climbing Denver Center
07:04PM 42.9156 -103.5339 197° South 122 140 10,600  Level Denver Center
07:05PM 42.8794 -103.5472 195° South 133 153 10,600  Level Denver Center
07:06PM 42.8378 -103.5650 197° South 138 159 10,600  Level Denver Center
07:07PM 42.8017 -103.5789 196° South 139 160 10,600  Level Denver Center
07:08PM 42.7664 -103.5944 198° South 140 161 10,600  Level Denver Center
07:09PM 42.7242 -103.6117 197° South 140 161 10,600  Level Denver Center
07:10PM 42.6872 -103.6267 197° South 142 163 10,600  Level Denver Center
07:11PM 42.6442 -103.6453 198° South 144 166 10,600  Level Denver Center
07:12PM 42.6089 -103.6594 196° South 142 163 10,600  Level Denver Center
07:13PM 42.5736 -103.6736 196° South 139 160 10,600  Level Denver Center
07:14PM 42.5303 -103.6914 197° South 141 162 10,600  Level Denver Center
07:15PM 42.4919 -103.7069 197° South 146 168 10,600  Level Denver Center
07:16PM 42.4486 -103.7253 197° South 147 169 10,600 -60 Level Denver Center
07:17PM 42.4136 -103.7403 198° South 143 165 10,500 -60 Descending Denver Center
07:18PM 42.3778 -103.7544 196° South 141 162 10,500  Level Denver Center
07:19PM 42.3372 -103.7711 197° South 138 159 10,500  Level Denver Center
07:20PM 42.3031 -103.7853 197° South 136 157 10,500  Level Denver Center
07:22PM 42.2625 -103.8017 197° South 136 157 10,600  Climbing Denver Center
07:23PM 42.2286 -103.8153 197° South 134 154 10,500 -60 Descending Denver Center
07:24PM 42.1944 -103.8286 196° South 133 153 10,500  Level Denver Center
07:25PM 42.1572 -103.8453 198° South 130 150 10,500  Level Denver Center
07:26PM 42.1242 -103.8567 194° South 129 148 10,500  Level Denver Center
07:27PM 42.0853 -103.8739 198° South 129 148 10,500  Level Denver Center
07:28PM 42.0511 -103.8875 196° South 132 152 10,500  Level Denver Center
07:29PM 42.0175 -103.9014 197° South 131 151 10,500  Level Denver Center
07:30PM 41.9781 -103.9164 196° South 132 152 10,500  Level Denver Center
07:31PM 41.9436 -103.9314 198° South 133 153 10,600  Climbing Denver Center
07:32PM 41.9028 -103.9472 196° South 135 155 10,500 -60 Descending Denver Center
07:33PM 41.8672 -103.9614 197° South 137 158 10,500  Level Denver Center
07:34PM 41.8272 -103.9792 198° South 136 157 10,500  Level Denver Center
07:35PM 41.7919 -103.9917 195° South 137 158 10,500  Level Denver Center
07:36PM 41.7567 -104.0047 195° South 137 158 10,500  Level Denver Center
07:37PM 41.7178 -104.0219 198° South 134 154 10,500  Level Denver Center
07:38PM 41.6858 -104.0350 197° South 130 150 10,500  Level Denver Center
07:39PM 41.6483 -104.0497 196° South 127 146 10,500  Level Denver Center
07:40PM 41.6158 -104.0625 196° South 126 145 10,500  Level Denver Center
07:41PM 41.5819 -104.0736 194° South 130 150 10,500  Level Denver Center
07:42PM 41.5417 -104.0911 198° South 134 154 10,500  Level Denver Center
07:43PM 41.5069 -104.1050 197° South 135 155 10,500  Level Denver Center
07:44PM 41.4661 -104.1206 196° South 136 157 10,500  Level Denver Center
07:45PM 41.4294 -104.1342 196° South 140 161 10,500  Level Denver Center
07:46PM 41.3928 -104.1486 196° South 142 163 10,500  Level Denver Center
07:47PM 41.3483 -104.1681 198° South 148 170 10,500  Level Denver Center
07:48PM 41.3139 -104.1825 197° South 141 162 10,500  Level Denver Center
07:49PM 41.2736 -104.1961 194° South 137 158 10,500  Level Denver Center
07:50PM 41.2400 -104.2119 200° South 135 155 10,500  Level Denver Center
07:51PM 41.2022 -104.2250 195° South 128 147 10,500  Level Denver Center
07:52PM 41.1692 -104.2375 196° South 128 147 10,500  Level Denver Center
07:53PM 41.1372 -104.2511 198° South 127 146 10,500  Level Denver Center
07:54PM 41.1000 -104.2644 195° South 124 143 10,500  Level Denver Center
07:55PM 41.0667 -104.2789 198° South 129 148 10,500  Level Denver Center
07:56PM 41.0286 -104.2922 195° South 128 147 10,500  Level Denver Center
07:57PM 40.9969 -104.3033 195° South 125 144 10,500  Level Denver Center
07:58PM 40.9647 -104.3164 197° South 121 139 10,500  Level Denver Center
07:59PM 40.9286 -104.3311 197° South 131 151 10,500  Level Denver Center
08:00PM 40.8922 -104.3450 196° South 136 157 10,500  Level Denver Center
08:02PM 40.8561 -104.3589 196° South 136 157 10,500  Level Denver Center
08:03PM 40.8139 -104.3769 198° South 134 154 10,500  Level Denver Center
08:04PM 40.7772 -104.3886 194° South 135 155 10,500  Level Denver Center
08:05PM 40.7469 -104.4139 212° Southwest 129 148 10,500  Level Denver Center
08:06PM 40.7131 -104.4422 212° Southwest 134 154 10,500 -180 Level Denver Center
08:07PM 40.6836 -104.4675 213° Southwest 128 147 10,200 -420 Descending Denver Center
08:08PM 40.6519 -104.4939 212° Southwest 134 154 9,700 -540 Descending Denver Center
08:09PM 40.6183 -104.5242 214° Southwest 136 157 9,200 -540 Descending Denver Center
08:10PM 40.5867 -104.5525 214° Southwest 138 159 8,700 -540 Descending Denver Center
08:11PM 40.5542 -104.5803 213° Southwest 139 160 8,200 -540 Descending Denver Center
08:12PM 40.5203 -104.6094 213° Southwest 136 157 7,700 -360 Descending Denver Center
08:13PM 40.4881 -104.6381 214° Southwest 140 161 7,500 -120 Descending Denver Center
08:14PM 40.4569 -104.6639 212° Southwest 133 153 7,500  Level Denver Center
08:15PM 40.4242 -104.6925 214° Southwest 132 152 7,500  Level Denver Center
08:16PM 40.3939 -104.7189 214° Southwest 130 150 7,500  Level Denver Center
08:17PM 40.3631 -104.7456 213° Southwest 132 152 7,500  Level Denver Center
08:18PM 40.3292 -104.7747 213° Southwest 133 153 7,500  Level Denver Center
08:19PM 40.2989 -104.8011 214° Southwest 132 152 7,500  Level Denver Center
08:20PM 40.2683 -104.8278 214° Southwest 132 152 7,500  Level Denver Center
08:21PM 40.2339 -104.8561 212° Southwest 136 157 7,500  Level Denver Center
08:22PM 40.2028 -104.8828 213° Southwest 134 154 7,500  Level Denver Center
08:23PM 40.1708 -104.9092 212° Southwest 135 155 7,500  Level Denver Center
08:24PM 40.1369 -104.9400 215° Southwest 137 158 7,500  Level Denver Center
08:25PM 40.1011 -104.9469 188° South 144 166 7,500  Level Denver Center
08:26PM 40.0631 -104.9394 171° South 140 161 7,500  Level Denver Center
08:27PM 40.0214 -104.9314 172° South 141 162 7,500  Level Denver Center
08:28PM 39.9822 -104.9239 172° South 141 162 7,500  Level Denver Center
08:29PM 39.9433 -104.9167 172° South 142 163 7,500  Level Denver Center
08:30PM 39.9014 -104.9094 172° South 141 162 7,500  Level Denver Center
08:31PM 39.8625 -104.9022 172° South 141 162 7,500  Level Denver Center
08:32PM 39.8244 -104.8958 173° South 139 160 7,500  Level Denver Center
08:33PM 39.7831 -104.8881 172° South 140 161 7,500  Level Denver Center
08:34PM 39.7450 -104.8808 172° South 139 160 7,500 -180 Level Denver Center
08:35PM 39.7056 -104.8622 160° South 150 173 7,200 -360 Descending Denver Center
08:36PM 39.6642 -104.8417 159° South 150 173 6,800 -180 Descending Denver Center
08:37PM 39.6308 -104.8122 146° Southeast 146 168 6,900  Climbing Denver Center
08:38PM 39.5975 -104.7769 141° Southeast 153 176 6,900 -180 Level Denver Center
08:39PM 39.5628 -104.7714 173° South 119 137 6,600 -360 Descending Denver Center
08:40PM 39.5578 -104.7978 256° West 92 106 6,200 -360 Descending Denver Center
08:42PM 39.5642 -104.8194 291° West 68 78 5,900 -300 Descending Denver Center